RA44704 URKE-UAON
Flight info
| Callsign | RA44704 |
|---|---|
| Flight time | N/A |
| Altitude | 35000 |
| Route | URKE/08R UPADA DCT LUTIN R122 UP R710 ZG G487 OBATA L988 ATR L139 SANUR |
| Aircraft | B752/M-SDFGHIRWY/S |
Departure
| Time | N/A |
|---|---|
| Airport | URKE |
Arrival
| Time | 2026-05-03 20:20 |
|---|---|
| Airport | Yubileyniy Airfield (UAON) |
| Time | Latitude | Longitude | Altitude | Speed | Heading |
|---|---|---|---|---|---|
| 2026-05-03 20:15 | 45.97659 | 63.00314 | 2150 ft | 169 kts | 64° |
| 2026-05-03 20:15 | 45.98153 | 63.01885 | 2124 ft | 174 kts | 64° |
| 2026-05-03 20:15 | 45.98663 | 63.03453 | 2106 ft | 169 kts | 64° |
| 2026-05-03 20:15 | 45.99151 | 63.04989 | 2119 ft | 170 kts | 65° |
| 2026-05-03 20:16 | 45.99640 | 63.06548 | 2119 ft | 172 kts | 65° |
| 2026-05-03 20:16 | 46.00123 | 63.08105 | 2115 ft | 170 kts | 65° |
| 2026-05-03 20:16 | 46.00600 | 63.09656 | 2138 ft | 167 kts | 65° |
| 2026-05-03 20:16 | 46.01056 | 63.11144 | 1956 ft | 160 kts | 65° |
| 2026-05-03 20:17 | 46.01483 | 63.12544 | 1753 ft | 145 kts | 65° |
| 2026-05-03 20:17 | 46.01859 | 63.13779 | 1588 ft | 126 kts | 65° |
| 2026-05-03 20:17 | 46.02200 | 63.14897 | 1401 ft | 120 kts | 65° |
| 2026-05-03 20:17 | 46.02536 | 63.15998 | 1254 ft | 120 kts | 65° |
| 2026-05-03 20:18 | 46.02871 | 63.17097 | 1097 ft | 120 kts | 65° |
| 2026-05-03 20:18 | 46.03203 | 63.18196 | 941 ft | 120 kts | 66° |
| 2026-05-03 20:18 | 46.03540 | 63.19295 | 759 ft | 120 kts | 65° |
| 2026-05-03 20:18 | 46.03879 | 63.20380 | 615 ft | 118 kts | 65° |
| 2026-05-03 20:19 | 46.04213 | 63.21465 | 472 ft | 119 kts | 66° |
| 2026-05-03 20:19 | 46.04539 | 63.22559 | 347 ft | 121 kts | 66° |
| 2026-05-03 20:19 | 46.04865 | 63.23676 | 325 ft | 116 kts | 67° |
| 2026-05-03 20:19 | 46.05125 | 63.24524 | 325 ft | 68 kts | 66° |
| 2026-05-03 20:20 | 46.05286 | 63.25048 | 325 ft | 54 kts | 66° |
| 2026-05-03 20:20 | 46.05417 | 63.25488 | 325 ft | 37 kts | 67° |
| 2026-05-03 20:20 | 46.05518 | 63.25825 | 325 ft | 36 kts | 67° |
| 2026-05-03 20:20 | 46.05597 | 63.26094 | 324 ft | 23 kts | 66° |
| 2026-05-03 20:21 | 46.05645 | 63.26227 | 324 ft | 7 kts | 34° |
| 2026-05-03 20:21 | 46.05695 | 63.26217 | 324 ft | 8 kts | 340° |
| 2026-05-03 20:21 | 46.05750 | 63.26185 | 324 ft | 8 kts | 336° |
| 2026-05-03 20:21 | 46.05810 | 63.26146 | 324 ft | 10 kts | 336° |
| 2026-05-03 20:22 | 46.05877 | 63.26104 | 324 ft | 11 kts | 336° |
| 2026-05-03 20:22 | 46.05953 | 63.26057 | 324 ft | 12 kts | 336° |
| 2026-05-03 20:22 | 46.06036 | 63.26006 | 324 ft | 13 kts | 337° |
| 2026-05-03 20:22 | 46.06119 | 63.25954 | 324 ft | 6 kts | 335° |
| 2026-05-03 20:23 | 46.06134 | 63.25899 | 324 ft | 9 kts | 249° |
| 2026-05-03 20:23 | 46.06106 | 63.25805 | 324 ft | 11 kts | 246° |
| 2026-05-03 20:23 | 46.06094 | 63.25764 | 324 ft | 0 kts | 246° |